sensor_id;sensor_type;location;lat;lon;timestamp;pressure;altitude;pressure_sealevel;temperature;humidity
25238;BME280;13185;50.872;5.306;2022-12-29T00:02:17;99924.34;;;9.95;100.00
25238;BME280;13185;50.872;5.306;2022-12-29T00:04:43;99928.63;;;9.98;100.00
25238;BME280;13185;50.872;5.306;2022-12-29T00:07:09;99918.53;;;10.01;100.00
25238;BME280;13185;50.872;5.306;2022-12-29T00:09:35;99913.91;;;10.03;100.00
25238;BME280;13185;50.872;5.306;2022-12-29T00:12:02;99912.81;;;10.06;100.00
25238;BME280;13185;50.872;5.306;2022-12-29T00:14:28;99912.56;;;10.09;100.00
25238;BME280;13185;50.872;5.306;2022-12-29T00:17:12;99902.81;;;10.08;100.00
25238;BME280;13185;50.872;5.306;2022-12-29T00:19:38;99887.59;;;10.08;100.00
25238;BME280;13185;50.872;5.306;2022-12-29T00:22:23;99876.75;;;10.10;100.00
25238;BME280;13185;50.872;5.306;2022-12-29T00:25:09;99889.94;;;10.13;100.00
25238;BME280;13185;50.872;5.306;2022-12-29T00:27:53;99902.38;;;10.14;100.00
25238;BME280;13185;50.872;5.306;2022-12-29T00:30:38;99896.75;;;10.17;100.00
25238;BME280;13185;50.872;5.306;2022-12-29T00:33:26;99899.13;;;10.22;100.00
25238;BME280;13185;50.872;5.306;2022-12-29T00:36:16;99917.75;;;10.23;100.00
25238;BME280;13185;50.872;5.306;2022-12-29T00:38:47;99896.44;;;10.22;100.00
25238;BME280;13185;50.872;5.306;2022-12-29T00:41:33;99911.41;;;10.24;100.00
25238;BME280;13185;50.872;5.306;2022-12-29T00:44:17;99886.44;;;10.24;100.00
25238;BME280;13185;50.872;5.306;2022-12-29T00:46:43;99893.38;;;10.26;100.00
25238;BME280;13185;50.872;5.306;2022-12-29T00:49:11;99897.03;;;10.25;100.00
25238;BME280;13185;50.872;5.306;2022-12-29T00:52:06;99888.16;;;10.25;100.00
25238;BME280;13185;50.872;5.306;2022-12-29T00:54:34;99887.31;;;10.24;100.00
25238;BME280;13185;50.872;5.306;2022-12-29T00:56:59;99873.06;;;10.24;100.00
25238;BME280;13185;50.872;5.306;2022-12-29T00:59:25;99858.94;;;10.22;100.00
25238;BME280;13185;50.872;5.306;2022-12-29T01:01:52;99882.06;;;10.23;100.00
25238;BME280;13185;50.872;5.306;2022-12-29T01:04:19;99876.59;;;10.24;100.00
25238;BME280;13185;50.872;5.306;2022-12-29T01:06:45;99870.38;;;10.24;100.00
25238;BME280;13185;50.872;5.306;2022-12-29T01:09:15;99880.38;;;10.22;100.00
25238;BME280;13185;50.872;5.306;2022-12-29T01:11:59;99882.91;;;10.23;100.00
25238;BME280;13185;50.872;5.306;2022-12-29T01:14:25;99867.81;;;10.22;100.00
25238;BME280;13185;50.872;5.306;2022-12-29T01:16:51;99883.97;;;10.21;100.00
25238;BME280;13185;50.872;5.306;2022-12-29T01:19:17;99890.28;;;10.20;100.00
25238;BME280;13185;50.872;5.306;2022-12-29T01:21:43;99878.53;;;10.22;100.00
25238;BME280;13185;50.872;5.306;2022-12-29T01:24:09;99886.56;;;10.22;100.00
25238;BME280;13185;50.872;5.306;2022-12-29T01:26:34;99889.13;;;10.24;100.00
25238;BME280;13185;50.872;5.306;2022-12-29T01:29:00;99898.03;;;10.24;100.00
25238;BME280;13185;50.872;5.306;2022-12-29T01:31:25;99880.00;;;10.26;100.00
25238;BME280;13185;50.872;5.306;2022-12-29T01:33:52;99876.22;;;10.29;100.00
25238;BME280;13185;50.872;5.306;2022-12-29T01:36:18;99881.44;;;10.30;100.00
25238;BME280;13185;50.872;5.306;2022-12-29T01:38:44;99867.06;;;10.31;100.00
25238;BME280;13185;50.872;5.306;2022-12-29T01:41:12;99865.28;;;10.32;100.00
25238;BME280;13185;50.872;5.306;2022-12-29T01:46:25;99862.34;;;10.35;100.00
25238;BME280;13185;50.872;5.306;2022-12-29T01:49:04;99866.47;;;10.39;100.00
25238;BME280;13185;50.872;5.306;2022-12-29T01:51:45;99876.22;;;10.40;100.00
25238;BME280;13185;50.872;5.306;2022-12-29T01:54:28;99873.31;;;10.43;100.00
25238;BME280;13185;50.872;5.306;2022-12-29T01:56:59;99876.97;;;10.42;100.00
25238;BME280;13185;50.872;5.306;2022-12-29T01:59:30;99892.41;;;10.38;100.00
25238;BME280;13185;50.872;5.306;2022-12-29T02:01:57;99878.16;;;10.38;100.00
25238;BME280;13185;50.872;5.306;2022-12-29T02:04:24;99870.38;;;10.35;100.00
25238;BME280;13185;50.872;5.306;2022-12-29T02:07:01;99867.06;;;10.31;100.00
25238;BME280;13185;50.872;5.306;2022-12-29T02:09:29;99858.28;;;10.29;100.00
25238;BME280;13185;50.872;5.306;2022-12-29T02:11:55;99859.41;;;10.27;100.00
25238;BME280;13185;50.872;5.306;2022-12-29T02:14:21;99858.56;;;10.26;100.00
25238;BME280;13185;50.872;5.306;2022-12-29T02:19:50;99855.88;;;10.26;100.00
25238;BME280;13185;50.872;5.306;2022-12-29T02:25:22;99840.91;;;10.24;100.00
25238;BME280;13185;50.872;5.306;2022-12-29T02:36:21;99824.41;;;10.17;100.00
25238;BME280;13185;50.872;5.306;2022-12-29T02:39:12;99822.72;;;10.16;100.00
25238;BME280;13185;50.872;5.306;2022-12-29T02:42:07;99826.25;;;10.17;100.00
25238;BME280;13185;50.872;5.306;2022-12-29T02:44:53;99823.44;;;10.18;100.00
25238;BME280;13185;50.872;5.306;2022-12-29T02:50:34;99818.75;;;10.22;100.00
25238;BME280;13185;50.872;5.306;2022-12-29T02:53:05;99821.41;;;10.22;100.00
25238;BME280;13185;50.872;5.306;2022-12-29T02:55:33;99802.66;;;10.22;100.00
25238;BME280;13185;50.872;5.306;2022-12-29T03:00:36;99800.56;;;10.25;100.00
25238;BME280;13185;50.872;5.306;2022-12-29T03:11:07;99787.78;;;10.29;100.00
25238;BME280;13185;50.872;5.306;2022-12-29T03:13:57;99772.81;;;10.26;100.00
25238;BME280;13185;50.872;5.306;2022-12-29T03:16:49;99777.44;;;10.24;100.00
25238;BME280;13185;50.872;5.306;2022-12-29T03:19:25;99782.94;;;10.23;100.00
25238;BME280;13185;50.872;5.306;2022-12-29T03:22:03;99802.53;;;10.23;100.00
25238;BME280;13185;50.872;5.306;2022-12-29T03:25:08;99786.47;;;10.23;100.00
25238;BME280;13185;50.872;5.306;2022-12-29T03:27:41;99774.75;;;10.24;100.00
25238;BME280;13185;50.872;5.306;2022-12-29T03:30:09;99795.34;;;10.24;100.00
25238;BME280;13185;50.872;5.306;2022-12-29T03:32:42;99773.91;;;10.24;100.00
25238;BME280;13185;50.872;5.306;2022-12-29T03:35:11;99775.59;;;10.25;100.00
25238;BME280;13185;50.872;5.306;2022-12-29T03:37:44;99789.25;;;10.22;100.00
25238;BME280;13185;50.872;5.306;2022-12-29T03:40:13;99789.25;;;10.22;100.00
25238;BME280;13185;50.872;5.306;2022-12-29T03:42:39;99799.84;;;10.23;100.00
25238;BME280;13185;50.872;5.306;2022-12-29T03:45:08;99796.06;;;10.26;100.00
25238;BME280;13185;50.872;5.306;2022-12-29T03:47:36;99809.22;;;10.29;100.00
25238;BME280;13185;50.872;5.306;2022-12-29T03:50:02;99817.88;;;10.32;100.00
25238;BME280;13185;50.872;5.306;2022-12-29T03:52:31;99804.34;;;10.34;100.00
25238;BME280;13185;50.872;5.306;2022-12-29T03:54:57;99818.59;;;10.34;100.00
25238;BME280;13185;50.872;5.306;2022-12-29T03:57:22;99825.53;;;10.37;100.00
25238;BME280;13185;50.872;5.306;2022-12-29T03:59:55;99836.97;;;10.39;100.00
25238;BME280;13185;50.872;5.306;2022-12-29T04:02:21;99836.00;;;10.40;100.00
25238;BME280;13185;50.872;5.306;2022-12-29T04:04:47;99825.28;;;10.40;100.00
25238;BME280;13185;50.872;5.306;2022-12-29T04:07:12;99820.19;;;10.37;100.00
25238;BME280;13185;50.872;5.306;2022-12-29T04:09:39;99833.84;;;10.34;100.00
25238;BME280;13185;50.872;5.306;2022-12-29T04:12:06;99835.03;;;10.30;100.00
25238;BME280;13185;50.872;5.306;2022-12-29T04:14:34;99847.72;;;10.28;100.00
25238;BME280;13185;50.872;5.306;2022-12-29T04:16:59;99845.16;;;10.26;100.00
25238;BME280;13185;50.872;5.306;2022-12-29T04:19:24;99849.91;;;10.23;100.00
25238;BME280;13185;50.872;5.306;2022-12-29T04:21:50;99852.19;;;10.16;100.00
25238;BME280;13185;50.872;5.306;2022-12-29T04:24:16;99855.84;;;10.04;100.00
25238;BME280;13185;50.872;5.306;2022-12-29T04:26:42;99847.41;;;9.97;100.00
25238;BME280;13185;50.872;5.306;2022-12-29T04:29:30;99849.59;;;9.92;100.00
25238;BME280;13185;50.872;5.306;2022-12-29T04:32:28;99843.63;;;9.89;100.00
25238;BME280;13185;50.872;5.306;2022-12-29T04:34:55;99845.56;;;9.87;100.00
25238;BME280;13185;50.872;5.306;2022-12-29T04:37:21;99851.19;;;9.83;100.00
25238;BME280;13185;50.872;5.306;2022-12-29T04:39:47;99844.34;;;9.79;100.00
25238;BME280;13185;50.872;5.306;2022-12-29T04:42:12;99857.00;;;9.77;100.00
25238;BME280;13185;50.872;5.306;2022-12-29T04:44:38;99862.34;;;9.77;100.00
25238;BME280;13185;50.872;5.306;2022-12-29T04:47:10;99853.34;;;9.78;100.00
25238;BME280;13185;50.872;5.306;2022-12-29T04:49:42;99848.84;;;9.79;100.00
25238;BME280;13185;50.872;5.306;2022-12-29T04:52:26;99857.84;;;9.78;100.00
25238;BME280;13185;50.872;5.306;2022-12-29T04:54:54;99864.06;;;9.78;100.00
25238;BME280;13185;50.872;5.306;2022-12-29T04:57:20;99864.81;;;9.80;100.00
25238;BME280;13185;50.872;5.306;2022-12-29T04:59:50;99878.19;;;9.80;100.00
25238;BME280;13185;50.872;5.306;2022-12-29T05:02:16;99861.28;;;9.80;100.00
25238;BME280;13185;50.872;5.306;2022-12-29T05:04:43;99868.56;;;9.78;100.00
25238;BME280;13185;50.872;5.306;2022-12-29T05:07:09;99866.72;;;9.78;100.00
25238;BME280;13185;50.872;5.306;2022-12-29T05:09:35;99868.22;;;9.82;100.00
25238;BME280;13185;50.872;5.306;2022-12-29T05:12:00;99862.88;;;9.82;100.00
25238;BME280;13185;50.872;5.306;2022-12-29T05:14:28;99864.91;;;9.79;100.00
25238;BME280;13185;50.872;5.306;2022-12-29T05:16:53;99865.88;;;9.78;100.00
25238;BME280;13185;50.872;5.306;2022-12-29T05:19:19;99860.53;;;9.78;100.00
25238;BME280;13185;50.872;5.306;2022-12-29T05:21:46;99866.72;;;9.78;100.00
25238;BME280;13185;50.872;5.306;2022-12-29T05:24:11;99875.63;;;9.79;100.00
25238;BME280;13185;50.872;5.306;2022-12-29T05:26:37;99878.28;;;9.79;100.00
25238;BME280;13185;50.872;5.306;2022-12-29T05:29:21;99881.09;;;9.77;100.00
25238;BME280;13185;50.872;5.306;2022-12-29T05:31:47;99875.63;;;9.79;100.00
25238;BME280;13185;50.872;5.306;2022-12-29T05:34:12;99880.88;;;9.80;100.00
25238;BME280;13185;50.872;5.306;2022-12-29T05:36:39;99874.44;;;9.83;100.00
25238;BME280;13185;50.872;5.306;2022-12-29T05:39:07;99890.38;;;9.84;100.00
25238;BME280;13185;50.872;5.306;2022-12-29T05:41:34;99887.56;;;9.86;100.00
25238;BME280;13185;50.872;5.306;2022-12-29T05:44:22;99883.06;;;9.87;100.00
25238;BME280;13185;50.872;5.306;2022-12-29T05:47:08;99887.44;;;9.88;100.00
25238;BME280;13185;50.872;5.306;2022-12-29T05:49:50;99885.50;;;9.90;100.00
25238;BME280;13185;50.872;5.306;2022-12-29T05:52:48;99881.97;;;9.89;100.00
25238;BME280;13185;50.872;5.306;2022-12-29T05:55:14;99903.19;;;9.92;100.00
25238;BME280;13185;50.872;5.306;2022-12-29T05:57:42;99888.69;;;9.95;99.79
25238;BME280;13185;50.872;5.306;2022-12-29T06:00:11;99886.25;;;9.92;99.50
25238;BME280;13185;50.872;5.306;2022-12-29T06:02:39;99888.28;;;9.88;99.06
25238;BME280;13185;50.872;5.306;2022-12-29T06:05:06;99896.56;;;9.85;98.93
25238;BME280;13185;50.872;5.306;2022-12-29T06:07:32;99910.22;;;9.82;98.84
25238;BME280;13185;50.872;5.306;2022-12-29T06:09:58;99898.84;;;9.78;98.53
25238;BME280;13185;50.872;5.306;2022-12-29T06:12:23;99919.56;;;9.76;98.50
25238;BME280;13185;50.872;5.306;2022-12-29T06:14:52;99915.03;;;9.77;98.25
25238;BME280;13185;50.872;5.306;2022-12-29T06:17:17;99916.75;;;9.78;98.12
25238;BME280;13185;50.872;5.306;2022-12-29T06:19:43;99906.03;;;9.78;98.24
25238;BME280;13185;50.872;5.306;2022-12-29T06:22:09;99916.88;;;9.76;98.71
25238;BME280;13185;50.872;5.306;2022-12-29T06:24:39;99912.63;;;9.74;98.37
25238;BME280;13185;50.872;5.306;2022-12-29T06:27:05;99918.09;;;9.72;98.19
25238;BME280;13185;50.872;5.306;2022-12-29T06:29:30;99927.22;;;9.70;97.93
25238;BME280;13185;50.872;5.306;2022-12-29T06:31:56;99931.81;;;9.68;98.25
25238;BME280;13185;50.872;5.306;2022-12-29T06:34:24;99928.41;;;9.66;98.18
25238;BME280;13185;50.872;5.306;2022-12-29T06:36:50;99919.03;;;9.60;98.17
25238;BME280;13185;50.872;5.306;2022-12-29T06:39:15;99934.25;;;9.60;97.54
25238;BME280;13185;50.872;5.306;2022-12-29T06:41:51;99929.81;;;9.59;97.83
25238;BME280;13185;50.872;5.306;2022-12-29T06:44:50;99949.66;;;9.56;97.23
25238;BME280;13185;50.872;5.306;2022-12-29T06:47:15;99945.28;;;9.55;97.58
25238;BME280;13185;50.872;5.306;2022-12-29T06:49:41;99941.75;;;9.54;97.21
25238;BME280;13185;50.872;5.306;2022-12-29T06:52:06;99939.19;;;9.53;97.11
25238;BME280;13185;50.872;5.306;2022-12-29T06:54:31;99945.50;;;9.52;97.37
25238;BME280;13185;50.872;5.306;2022-12-29T06:56:57;99951.59;;;9.54;97.56
25238;BME280;13185;50.872;5.306;2022-12-29T06:59:23;99951.34;;;9.57;97.12
25238;BME280;13185;50.872;5.306;2022-12-29T07:01:50;99962.91;;;9.58;97.03
25238;BME280;13185;50.872;5.306;2022-12-29T07:04:15;99971.78;;;9.58;97.36
25238;BME280;13185;50.872;5.306;2022-12-29T07:06:41;99966.34;;;9.60;97.37
25238;BME280;13185;50.872;5.306;2022-12-29T07:09:07;99964.28;;;9.63;96.87
25238;BME280;13185;50.872;5.306;2022-12-29T07:11:33;99963.09;;;9.67;96.65
25238;BME280;13185;50.872;5.306;2022-12-29T07:13:59;99967.72;;;9.65;96.56
25238;BME280;13185;50.872;5.306;2022-12-29T07:16:24;99982.06;;;9.64;96.06
25238;BME280;13185;50.872;5.306;2022-12-29T07:18:50;99981.44;;;9.61;97.10
25238;BME280;13185;50.872;5.306;2022-12-29T07:21:17;99997.50;;;9.61;97.48
25238;BME280;13185;50.872;5.306;2022-12-29T07:23:43;99982.19;;;9.63;98.74
25238;BME280;13185;50.872;5.306;2022-12-29T07:26:11;99993.88;;;9.62;100.00
25238;BME280;13185;50.872;5.306;2022-12-29T07:28:37;99991.75;;;9.54;100.00
25238;BME280;13185;50.872;5.306;2022-12-29T07:31:04;100002.03;;;9.47;100.00
25238;BME280;13185;50.872;5.306;2022-12-29T07:33:30;99980.97;;;9.43;100.00
25238;BME280;13185;50.872;5.306;2022-12-29T07:35:56;99996.50;;;9.38;100.00
25238;BME280;13185;50.872;5.306;2022-12-29T07:38:22;99997.94;;;9.31;100.00
25238;BME280;13185;50.872;5.306;2022-12-29T07:40:47;99999.97;;;9.27;100.00
25238;BME280;13185;50.872;5.306;2022-12-29T07:43:13;100010.91;;;9.24;100.00
25238;BME280;13185;50.872;5.306;2022-12-29T07:45:45;100012.59;;;9.25;100.00
25238;BME280;13185;50.872;5.306;2022-12-29T07:48:11;100013.34;;;9.27;100.00
25238;BME280;13185;50.872;5.306;2022-12-29T07:50:37;100019.66;;;9.26;100.00
25238;BME280;13185;50.872;5.306;2022-12-29T07:53:02;100010.91;;;9.24;100.00
25238;BME280;13185;50.872;5.306;2022-12-29T07:55:30;100020.88;;;9.22;100.00
25238;BME280;13185;50.872;5.306;2022-12-29T07:57:56;100018.44;;;9.19;100.00
25238;BME280;13185;50.872;5.306;2022-12-29T08:00:22;100027.41;;;9.18;100.00
25238;BME280;13185;50.872;5.306;2022-12-29T08:02:48;100034.59;;;9.17;100.00
25238;BME280;13185;50.872;5.306;2022-12-29T08:05:14;100029.31;;;9.16;99.91
25238;BME280;13185;50.872;5.306;2022-12-29T08:07:43;100037.34;;;9.16;99.86
25238;BME280;13185;50.872;5.306;2022-12-29T08:10:09;100023.25;;;9.14;99.50
25238;BME280;13185;50.872;5.306;2022-12-29T08:12:35;100048.81;;;9.18;99.84
25238;BME280;13185;50.872;5.306;2022-12-29T08:15:00;100040.44;;;9.22;99.69
25238;BME280;13185;50.872;5.306;2022-12-29T08:17:26;100048.47;;;9.22;99.06
25238;BME280;13185;50.872;5.306;2022-12-29T08:19:51;100039.25;;;9.26;98.47
25238;BME280;13185;50.872;5.306;2022-12-29T08:22:17;100034.75;;;9.27;98.52
25238;BME280;13185;50.872;5.306;2022-12-29T08:24:42;100056.06;;;9.29;97.84
25238;BME280;13185;50.872;5.306;2022-12-29T08:27:08;100057.78;;;9.30;97.46
25238;BME280;13185;50.872;5.306;2022-12-29T08:29:33;100048.66;;;9.32;97.29
25238;BME280;13185;50.872;5.306;2022-12-29T08:31:58;100062.78;;;9.34;96.72
25238;BME280;13185;50.872;5.306;2022-12-29T08:34:24;100057.31;;;9.36;96.49
25238;BME280;13185;50.872;5.306;2022-12-29T08:36:49;100053.78;;;9.35;95.36
25238;BME280;13185;50.872;5.306;2022-12-29T08:39:17;100066.53;;;9.32;94.82
25238;BME280;13185;50.872;5.306;2022-12-29T08:41:43;100065.81;;;9.30;94.68
25238;BME280;13185;50.872;5.306;2022-12-29T08:44:08;100071.03;;;9.31;94.48
25238;BME280;13185;50.872;5.306;2022-12-29T08:46:34;100070.69;;;9.36;94.02
25238;BME280;13185;50.872;5.306;2022-12-29T08:48:59;100084.81;;;9.38;94.02
25238;BME280;13185;50.872;5.306;2022-12-29T08:51:25;100076.59;;;9.41;93.61
25238;BME280;13185;50.872;5.306;2022-12-29T08:53:51;100071.13;;;9.42;93.19
25238;BME280;13185;50.872;5.306;2022-12-29T08:56:17;100076.59;;;9.41;92.75
25238;BME280;13185;50.872;5.306;2022-12-29T08:58:48;100097.25;;;9.39;92.93
25238;BME280;13185;50.872;5.306;2022-12-29T09:01:13;100079.69;;;9.35;92.92
25238;BME280;13185;50.872;5.306;2022-12-29T09:03:38;100082.72;;;9.30;93.04
25238;BME280;13185;50.872;5.306;2022-12-29T09:06:04;100092.69;;;9.28;93.35
25238;BME280;13185;50.872;5.306;2022-12-29T09:08:30;100094.38;;;9.29;93.03
25238;BME280;13185;50.872;5.306;2022-12-29T09:11:05;100084.53;;;9.30;92.08
25238;BME280;13185;50.872;5.306;2022-12-29T09:13:31;100093.31;;;9.32;92.54
25238;BME280;13185;50.872;5.306;2022-12-29T09:15:59;100098.78;;;9.30;92.49
25238;BME280;13185;50.872;5.306;2022-12-29T09:18:25;100091.72;;;9.29;91.70
25238;BME280;13185;50.872;5.306;2022-12-29T09:20:58;100093.41;;;9.30;90.69
25238;BME280;13185;50.872;5.306;2022-12-29T09:23:24;100104.97;;;9.31;91.50
25238;BME280;13185;50.872;5.306;2022-12-29T09:25:50;100104.13;;;9.30;91.45
25238;BME280;13185;50.872;5.306;2022-12-29T09:28:15;100116.53;;;9.31;90.75
25238;BME280;13185;50.872;5.306;2022-12-29T09:30:41;100107.53;;;9.32;90.85
25238;BME280;13185;50.872;5.306;2022-12-29T09:33:07;100115.34;;;9.35;90.18
25238;BME280;13185;50.872;5.306;2022-12-29T09:35:34;100108.91;;;9.38;89.65
25238;BME280;13185;50.872;5.306;2022-12-29T09:38:00;100126.69;;;9.39;89.52
25238;BME280;13185;50.872;5.306;2022-12-29T09:40:30;100111.59;;;9.38;89.32
25238;BME280;13185;50.872;5.306;2022-12-29T09:48:03;100127.63;;;9.38;87.96
25238;BME280;13185;50.872;5.306;2022-12-29T09:50:33;100121.66;;;9.34;88.01
25238;BME280;13185;50.872;5.306;2022-12-29T09:53:25;100135.16;;;9.33;87.53
25238;BME280;13185;50.872;5.306;2022-12-29T09:55:53;100138.69;;;9.33;87.62
25238;BME280;13185;50.872;5.306;2022-12-29T09:58:39;100152.91;;;9.34;87.85
25238;BME280;13185;50.872;5.306;2022-12-29T10:01:30;100150.25;;;9.34;87.64
25238;BME280;13185;50.872;5.306;2022-12-29T10:03:58;100161.56;;;9.37;86.47
25238;BME280;13185;50.872;5.306;2022-12-29T10:06:32;100156.22;;;9.37;87.73
25238;BME280;13185;50.872;5.306;2022-12-29T10:14:33;100169.28;;;9.42;85.37
25238;BME280;13185;50.872;5.306;2022-12-29T10:25:55;100173.78;;;9.41;85.76
25238;BME280;13185;50.872;5.306;2022-12-29T10:28:29;100202.25;;;9.42;85.67
25238;BME280;13185;50.872;5.306;2022-12-29T10:30:56;100186.31;;;9.41;85.20
25238;BME280;13185;50.872;5.306;2022-12-29T10:33:33;100183.53;;;9.42;85.22
25238;BME280;13185;50.872;5.306;2022-12-29T10:36:13;100179.66;;;9.46;85.28
25238;BME280;13185;50.872;5.306;2022-12-29T10:38:45;100183.00;;;9.50;85.49
25238;BME280;13185;50.872;5.306;2022-12-29T10:41:25;100196.03;;;9.54;85.38
25238;BME280;13185;50.872;5.306;2022-12-29T10:43:54;100195.50;;;9.62;84.91
25238;BME280;13185;50.872;5.306;2022-12-29T10:46:25;100194.84;;;9.71;84.75
25238;BME280;13185;50.872;5.306;2022-12-29T10:48:52;100197.91;;;9.78;84.47
25238;BME280;13185;50.872;5.306;2022-12-29T10:51:21;100203.81;;;9.83;84.40
25238;BME280;13185;50.872;5.306;2022-12-29T10:56:50;100208.31;;;9.82;84.08
25238;BME280;13185;50.872;5.306;2022-12-29T10:59:23;100197.06;;;9.77;83.87
25238;BME280;13185;50.872;5.306;2022-12-29T11:04:28;100212.81;;;9.82;84.53
25238;BME280;13185;50.872;5.306;2022-12-29T11:06:59;100207.84;;;9.89;84.32
25238;BME280;13185;50.872;5.306;2022-12-29T11:09:28;100214.59;;;9.94;84.00
25238;BME280;13185;50.872;5.306;2022-12-29T11:11:55;100219.75;;;9.97;84.19
25238;BME280;13185;50.872;5.306;2022-12-29T11:14:27;100240.00;;;10.01;83.98
25238;BME280;13185;50.872;5.306;2022-12-29T11:17:03;100236.97;;;10.06;84.25
25238;BME280;13185;50.872;5.306;2022-12-29T11:19:32;100233.31;;;10.07;84.05
25238;BME280;13185;50.872;5.306;2022-12-29T11:22:20;100237.50;;;10.11;84.09
25238;BME280;13185;50.872;5.306;2022-12-29T11:24:49;100241.03;;;10.11;83.70
25238;BME280;13185;50.872;5.306;2022-12-29T11:27:18;100246.28;;;10.13;83.01
25238;BME280;13185;50.872;5.306;2022-12-29T11:29:46;100246.28;;;10.13;82.52
25238;BME280;13185;50.872;5.306;2022-12-29T11:32:26;100254.31;;;10.13;82.96
25238;BME280;13185;50.872;5.306;2022-12-29T11:34:52;100249.94;;;10.12;82.98
25238;BME280;13185;50.872;5.306;2022-12-29T11:37:20;100249.94;;;10.12;82.86
25238;BME280;13185;50.872;5.306;2022-12-29T11:40:00;100256.16;;;10.12;83.31
25238;BME280;13185;50.872;5.306;2022-12-29T11:42:35;100256.34;;;10.09;83.10
25238;BME280;13185;50.872;5.306;2022-12-29T11:45:09;100263.41;;;10.10;82.08
25238;BME280;13185;50.872;5.306;2022-12-29T11:47:38;100257.13;;;10.11;82.45
25238;BME280;13185;50.872;5.306;2022-12-29T11:50:06;100265.16;;;10.11;82.85
25238;BME280;13185;50.872;5.306;2022-12-29T11:52:35;100262.56;;;10.10;82.67
25238;BME280;13185;50.872;5.306;2022-12-29T11:55:05;100274.38;;;10.07;82.67
25238;BME280;13185;50.872;5.306;2022-12-29T11:57:41;100269.97;;;10.06;81.89
25238;BME280;13185;50.872;5.306;2022-12-29T12:00:19;100269.97;;;10.06;82.27
25238;BME280;13185;50.872;5.306;2022-12-29T12:02:54;100262.91;;;10.05;81.85
25238;BME280;13185;50.872;5.306;2022-12-29T12:05:24;100271.81;;;10.06;81.97
25238;BME280;13185;50.872;5.306;2022-12-29T12:08:01;100275.34;;;10.06;81.70
25238;BME280;13185;50.872;5.306;2022-12-29T12:10:43;100281.44;;;10.08;81.63
25238;BME280;13185;50.872;5.306;2022-12-29T12:13:25;100280.56;;;10.08;81.48
25238;BME280;13185;50.872;5.306;2022-12-29T12:16:03;100267.72;;;10.13;81.19
25238;BME280;13185;50.872;5.306;2022-12-29T12:18:40;100265.44;;;10.20;81.41
25238;BME280;13185;50.872;5.306;2022-12-29T12:21:13;100258.94;;;10.24;81.57
25238;BME280;13185;50.872;5.306;2022-12-29T12:24:07;100268.69;;;10.25;80.85
25238;BME280;13185;50.872;5.306;2022-12-29T12:26:55;100267.84;;;10.24;80.75
25238;BME280;13185;50.872;5.306;2022-12-29T12:29:26;100261.63;;;10.24;80.36
25238;BME280;13185;50.872;5.306;2022-12-29T12:32:01;100280.03;;;10.28;80.54
25238;BME280;13185;50.872;5.306;2022-12-29T12:34:32;100273.81;;;10.28;80.36
25238;BME280;13185;50.872;5.306;2022-12-29T13:03:05;100284.78;;;10.25;81.37
25238;BME280;13185;50.872;5.306;2022-12-29T13:05:53;100292.69;;;10.26;81.52
25238;BME280;13185;50.872;5.306;2022-12-29T13:08:47;100293.66;;;10.25;81.64
25238;BME280;13185;50.872;5.306;2022-12-29T13:14:22;100284.19;;;10.20;81.44
25238;BME280;13185;50.872;5.306;2022-12-29T13:17:15;100288.81;;;10.18;81.16
25238;BME280;13185;50.872;5.306;2022-12-29T13:20:11;100288.69;;;10.19;81.58
25238;BME280;13185;50.872;5.306;2022-12-29T13:22:52;100281.75;;;10.17;81.04
25238;BME280;13185;50.872;5.306;2022-12-29T13:25:50;100291.94;;;10.11;81.04
25238;BME280;13185;50.872;5.306;2022-12-29T13:36:43;100293.78;;;10.11;81.44
25238;BME280;13185;50.872;5.306;2022-12-29T13:39:19;100293.84;;;10.09;81.85
25238;BME280;13185;50.872;5.306;2022-12-29T13:41:53;100297.31;;;10.11;82.09
25238;BME280;13185;50.872;5.306;2022-12-29T13:44:23;100294.72;;;10.10;82.01
25238;BME280;13185;50.872;5.306;2022-12-29T13:46:50;100298.38;;;10.09;81.72
25238;BME280;13185;50.872;5.306;2022-12-29T13:49:18;100309.31;;;10.06;81.97
25238;BME280;13185;50.872;5.306;2022-12-29T13:51:50;100302.13;;;10.06;82.15
25238;BME280;13185;50.872;5.306;2022-12-29T13:57:14;100319.41;;;10.02;82.16
25238;BME280;13185;50.872;5.306;2022-12-29T13:59:51;100311.34;;;10.02;82.17
25238;BME280;13185;50.872;5.306;2022-12-29T14:02:42;100321.22;;;10.02;81.98
25238;BME280;13185;50.872;5.306;2022-12-29T14:07:46;100326.88;;;9.97;82.16
25238;BME280;13185;50.872;5.306;2022-12-29T14:10:37;100321.53;;;9.97;82.32
25238;BME280;13185;50.872;5.306;2022-12-29T14:13:15;100318.09;;;9.95;82.61
25238;BME280;13185;50.872;5.306;2022-12-29T14:15:49;100333.44;;;9.93;82.71
25238;BME280;13185;50.872;5.306;2022-12-29T14:18:27;100332.78;;;9.90;82.45
25238;BME280;13185;50.872;5.306;2022-12-29T14:28:36;100328.50;;;9.87;83.21
25238;BME280;13185;50.872;5.306;2022-12-29T14:31:04;100335.78;;;9.85;82.81
25238;BME280;13185;50.872;5.306;2022-12-29T14:33:32;100325.06;;;9.85;83.42
25238;BME280;13185;50.872;5.306;2022-12-29T14:38:47;100331.50;;;9.82;82.79
25238;BME280;13185;50.872;5.306;2022-12-29T14:41:40;100333.97;;;9.86;82.51
25238;BME280;13185;50.872;5.306;2022-12-29T14:49:19;100331.19;;;9.87;82.30
25238;BME280;13185;50.872;5.306;2022-12-29T14:51:47;100342.00;;;9.86;81.65
25238;BME280;13185;50.872;5.306;2022-12-29T14:54:40;100341.25;;;9.83;81.50
25238;BME280;13185;50.872;5.306;2022-12-29T14:57:15;100331.94;;;9.76;82.02
25238;BME280;13185;50.872;5.306;2022-12-29T14:59:44;100328.06;;;9.68;81.85
25238;BME280;13185;50.872;5.306;2022-12-29T15:02:17;100332.16;;;9.61;82.37
25238;BME280;13185;50.872;5.306;2022-12-29T15:04:44;100338.56;;;9.58;82.71
25238;BME280;13185;50.872;5.306;2022-12-29T15:07:11;100336.22;;;9.53;82.42
25238;BME280;13185;50.872;5.306;2022-12-29T15:10:04;100344.56;;;9.49;82.53
25238;BME280;13185;50.872;5.306;2022-12-29T15:12:41;100350.44;;;9.41;82.45
25238;BME280;13185;50.872;5.306;2022-12-29T15:15:27;100371.94;;;9.40;82.75